sensor_id;sensor_type;location;lat;lon;timestamp;P1;durP1;ratioP1;P2;durP2;ratioP2
19235;SDS011;9752;54.270;12.470;2024-01-15T00:01:41;11.27;;;9.40;;
19235;SDS011;9752;54.270;12.470;2024-01-15T00:06:45;19.07;;;8.50;;
19235;SDS011;9752;54.270;12.470;2024-01-15T00:11:46;13.40;;;8.33;;
19235;SDS011;9752;54.270;12.470;2024-01-15T00:16:48;13.40;;;8.73;;
19235;SDS011;9752;54.270;12.470;2024-01-15T00:21:52;12.23;;;8.77;;
19235;SDS011;9752;54.270;12.470;2024-01-15T00:26:54;13.43;;;8.33;;
19235;SDS011;9752;54.270;12.470;2024-01-15T00:31:56;9.53;;;8.50;;
19235;SDS011;9752;54.270;12.470;2024-01-15T00:36:59;14.50;;;9.97;;
19235;SDS011;9752;54.270;12.470;2024-01-15T00:42:00;12.20;;;9.10;;
19235;SDS011;9752;54.270;12.470;2024-01-15T00:47:02;16.27;;;10.13;;
19235;SDS011;9752;54.270;12.470;2024-01-15T00:52:05;18.73;;;9.30;;
19235;SDS011;9752;54.270;12.470;2024-01-15T00:57:07;14.50;;;8.20;;
19235;SDS011;9752;54.270;12.470;2024-01-15T01:02:09;21.47;;;9.20;;
19235;SDS011;9752;54.270;12.470;2024-01-15T01:07:12;23.53;;;10.47;;
19235;SDS011;9752;54.270;12.470;2024-01-15T01:12:13;11.53;;;8.33;;
19235;SDS011;9752;54.270;12.470;2024-01-15T01:17:15;13.23;;;9.30;;
19235;SDS011;9752;54.270;12.470;2024-01-15T01:22:18;16.47;;;9.37;;
19235;SDS011;9752;54.270;12.470;2024-01-15T01:27:19;12.13;;;9.60;;
19235;SDS011;9752;54.270;12.470;2024-01-15T01:32:21;13.43;;;9.77;;
19235;SDS011;9752;54.270;12.470;2024-01-15T01:37:24;16.57;;;9.73;;
19235;SDS011;9752;54.270;12.470;2024-01-15T01:42:26;20.03;;;9.90;;
19235;SDS011;9752;54.270;12.470;2024-01-15T01:47:27;20.87;;;10.70;;
19235;SDS011;9752;54.270;12.470;2024-01-15T01:52:31;24.70;;;10.57;;
19235;SDS011;9752;54.270;12.470;2024-01-15T01:57:33;19.97;;;8.90;;
19235;SDS011;9752;54.270;12.470;2024-01-15T02:02:35;12.07;;;8.97;;
19235;SDS011;9752;54.270;12.470;2024-01-15T02:07:38;11.50;;;8.97;;
19235;SDS011;9752;54.270;12.470;2024-01-15T02:12:40;18.80;;;10.13;;
19235;SDS011;9752;54.270;12.470;2024-01-15T02:23:09;14.50;;;10.07;;
19235;SDS011;9752;54.270;12.470;2024-01-15T02:28:13;11.17;;;9.60;;
19235;SDS011;9752;54.270;12.470;2024-01-15T02:33:16;13.50;;;10.33;;
19235;SDS011;9752;54.270;12.470;2024-01-15T02:38:19;19.27;;;10.90;;
19235;SDS011;9752;54.270;12.470;2024-01-15T02:43:21;25.87;;;11.90;;
19235;SDS011;9752;54.270;12.470;2024-01-15T02:48:22;19.30;;;11.37;;
19235;SDS011;9752;54.270;12.470;2024-01-15T02:53:25;19.33;;;11.43;;
19235;SDS011;9752;54.270;12.470;2024-01-15T02:58:27;14.10;;;11.23;;
19235;SDS011;9752;54.270;12.470;2024-01-15T03:03:28;19.00;;;10.73;;
19235;SDS011;9752;54.270;12.470;2024-01-15T03:08:31;18.97;;;11.10;;
19235;SDS011;9752;54.270;12.470;2024-01-15T03:13:35;22.17;;;13.63;;
19235;SDS011;9752;54.270;12.470;2024-01-15T03:18:37;16.43;;;13.20;;
19235;SDS011;9752;54.270;12.470;2024-01-15T03:23:40;18.47;;;13.50;;
19235;SDS011;9752;54.270;12.470;2024-01-15T03:28:41;16.57;;;13.87;;
19235;SDS011;9752;54.270;12.470;2024-01-15T03:33:43;13.77;;;12.17;;
19235;SDS011;9752;54.270;12.470;2024-01-15T03:38:46;17.17;;;11.77;;
19235;SDS011;9752;54.270;12.470;2024-01-15T03:43:48;12.23;;;11.13;;
19235;SDS011;9752;54.270;12.470;2024-01-15T03:48:49;15.53;;;11.20;;
19235;SDS011;9752;54.270;12.470;2024-01-15T03:53:52;16.67;;;11.63;;
19235;SDS011;9752;54.270;12.470;2024-01-15T03:58:54;27.00;;;16.70;;
19235;SDS011;9752;54.270;12.470;2024-01-15T04:03:56;13.90;;;12.67;;
19235;SDS011;9752;54.270;12.470;2024-01-15T04:08:59;18.93;;;14.20;;
19235;SDS011;9752;54.270;12.470;2024-01-15T04:14:00;16.50;;;14.87;;
19235;SDS011;9752;54.270;12.470;2024-01-15T04:19:02;16.17;;;13.57;;
19235;SDS011;9752;54.270;12.470;2024-01-15T04:24:05;18.87;;;14.00;;
19235;SDS011;9752;54.270;12.470;2024-01-15T04:29:07;20.90;;;13.93;;
19235;SDS011;9752;54.270;12.470;2024-01-15T04:34:09;14.70;;;13.20;;
19235;SDS011;9752;54.270;12.470;2024-01-15T04:39:12;18.17;;;13.77;;
19235;SDS011;9752;54.270;12.470;2024-01-15T04:44:13;29.77;;;14.80;;
19235;SDS011;9752;54.270;12.470;2024-01-15T04:49:15;20.03;;;12.13;;
19235;SDS011;9752;54.270;12.470;2024-01-15T04:54:18;23.47;;;13.73;;
19235;SDS011;9752;54.270;12.470;2024-01-15T04:59:20;14.87;;;13.20;;
19235;SDS011;9752;54.270;12.470;2024-01-15T05:04:22;14.23;;;13.40;;
19235;SDS011;9752;54.270;12.470;2024-01-15T05:09:26;15.07;;;13.63;;
19235;SDS011;9752;54.270;12.470;2024-01-15T05:14:28;15.03;;;13.67;;
19235;SDS011;9752;54.270;12.470;2024-01-15T05:19:30;17.77;;;14.03;;
19235;SDS011;9752;54.270;12.470;2024-01-15T05:24:33;15.50;;;13.83;;
19235;SDS011;9752;54.270;12.470;2024-01-15T05:29:35;13.70;;;12.27;;
19235;SDS011;9752;54.270;12.470;2024-01-15T05:34:36;12.30;;;11.23;;
19235;SDS011;9752;54.270;12.470;2024-01-15T05:39:39;14.80;;;11.40;;
19235;SDS011;9752;54.270;12.470;2024-01-15T05:44:41;12.60;;;10.53;;
19235;SDS011;9752;54.270;12.470;2024-01-15T05:49:42;12.23;;;11.10;;
19235;SDS011;9752;54.270;12.470;2024-01-15T05:54:45;11.73;;;11.00;;
19235;SDS011;9752;54.270;12.470;2024-01-15T05:59:47;13.63;;;11.67;;
19235;SDS011;9752;54.270;12.470;2024-01-15T06:04:49;12.53;;;11.70;;
19235;SDS011;9752;54.270;12.470;2024-01-15T06:09:52;11.90;;;11.13;;
19235;SDS011;9752;54.270;12.470;2024-01-15T06:14:53;12.43;;;11.40;;
19235;SDS011;9752;54.270;12.470;2024-01-15T06:19:55;12.17;;;11.10;;
19235;SDS011;9752;54.270;12.470;2024-01-15T06:24:58;15.13;;;10.87;;
19235;SDS011;9752;54.270;12.470;2024-01-15T06:30:00;11.93;;;11.03;;
19235;SDS011;9752;54.270;12.470;2024-01-15T06:35:02;11.43;;;10.60;;
19235;SDS011;9752;54.270;12.470;2024-01-15T06:40:05;10.90;;;10.30;;
19235;SDS011;9752;54.270;12.470;2024-01-15T06:45:08;10.87;;;9.77;;
19235;SDS011;9752;54.270;12.470;2024-01-15T06:50:10;10.20;;;9.50;;
19235;SDS011;9752;54.270;12.470;2024-01-15T06:55:13;11.00;;;10.53;;
19235;SDS011;9752;54.270;12.470;2024-01-15T07:00:16;12.30;;;11.60;;
19235;SDS011;9752;54.270;12.470;2024-01-15T07:05:20;12.10;;;11.60;;
19235;SDS011;9752;54.270;12.470;2024-01-15T07:10:23;13.00;;;12.30;;
19235;SDS011;9752;54.270;12.470;2024-01-15T07:15:24;13.10;;;11.90;;
19235;SDS011;9752;54.270;12.470;2024-01-15T07:20:26;12.33;;;11.63;;
19235;SDS011;9752;54.270;12.470;2024-01-15T07:25:29;13.17;;;12.10;;
19235;SDS011;9752;54.270;12.470;2024-01-15T07:30:31;13.83;;;13.23;;
19235;SDS011;9752;54.270;12.470;2024-01-15T07:35:32;13.87;;;13.17;;
19235;SDS011;9752;54.270;12.470;2024-01-15T07:40:35;11.83;;;11.33;;
19235;SDS011;9752;54.270;12.470;2024-01-15T07:45:37;11.60;;;11.00;;
19235;SDS011;9752;54.270;12.470;2024-01-15T07:50:38;10.90;;;10.40;;
19235;SDS011;9752;54.270;12.470;2024-01-15T07:55:41;10.83;;;10.23;;
19235;SDS011;9752;54.270;12.470;2024-01-15T08:00:43;10.80;;;10.30;;
19235;SDS011;9752;54.270;12.470;2024-01-15T08:05:45;12.13;;;11.17;;
19235;SDS011;9752;54.270;12.470;2024-01-15T08:10:48;11.10;;;10.30;;
19235;SDS011;9752;54.270;12.470;2024-01-15T08:15:50;10.50;;;9.87;;
19235;SDS011;9752;54.270;12.470;2024-01-15T08:20:51;10.50;;;9.90;;
19235;SDS011;9752;54.270;12.470;2024-01-15T08:25:55;9.47;;;8.70;;
19235;SDS011;9752;54.270;12.470;2024-01-15T08:30:57;9.33;;;8.83;;
19235;SDS011;9752;54.270;12.470;2024-01-15T08:35:58;9.90;;;9.00;;
19235;SDS011;9752;54.270;12.470;2024-01-15T08:41:01;10.20;;;9.57;;
19235;SDS011;9752;54.270;12.470;2024-01-15T08:46:03;9.43;;;8.77;;
19235;SDS011;9752;54.270;12.470;2024-01-15T08:51:05;9.50;;;8.90;;
19235;SDS011;9752;54.270;12.470;2024-01-15T08:56:09;9.67;;;8.97;;
19235;SDS011;9752;54.270;12.470;2024-01-15T09:01:11;9.93;;;9.20;;
19235;SDS011;9752;54.270;12.470;2024-01-15T09:06:13;9.17;;;8.53;;
19235;SDS011;9752;54.270;12.470;2024-01-15T09:11:16;9.43;;;8.67;;
19235;SDS011;9752;54.270;12.470;2024-01-15T09:16:17;9.43;;;8.80;;
19235;SDS011;9752;54.270;12.470;2024-01-15T09:21:19;8.80;;;8.30;;
19235;SDS011;9752;54.270;12.470;2024-01-15T09:26:22;9.33;;;9.03;;
19235;SDS011;9752;54.270;12.470;2024-01-15T09:31:24;10.60;;;9.57;;
19235;SDS011;9752;54.270;12.470;2024-01-15T09:36:27;9.67;;;8.93;;
19235;SDS011;9752;54.270;12.470;2024-01-15T09:41:30;9.60;;;9.00;;
19235;SDS011;9752;54.270;12.470;2024-01-15T09:46:31;9.90;;;9.10;;
19235;SDS011;9752;54.270;12.470;2024-01-15T09:51:34;8.27;;;7.83;;
19235;SDS011;9752;54.270;12.470;2024-01-15T09:56:38;10.10;;;9.40;;
19235;SDS011;9752;54.270;12.470;2024-01-15T10:01:40;9.63;;;8.70;;
19235;SDS011;9752;54.270;12.470;2024-01-15T10:06:43;9.93;;;9.13;;
19235;SDS011;9752;54.270;12.470;2024-01-15T10:11:49;9.60;;;8.90;;
19235;SDS011;9752;54.270;12.470;2024-01-15T10:16:51;9.10;;;8.40;;
19235;SDS011;9752;54.270;12.470;2024-01-15T10:21:52;9.80;;;9.00;;
19235;SDS011;9752;54.270;12.470;2024-01-15T10:26:58;8.83;;;8.23;;
19235;SDS011;9752;54.270;12.470;2024-01-15T10:32:06;11.13;;;8.77;;
19235;SDS011;9752;54.270;12.470;2024-01-15T10:37:09;9.10;;;8.30;;
19235;SDS011;9752;54.270;12.470;2024-01-15T10:42:12;9.70;;;9.03;;
19235;SDS011;9752;54.270;12.470;2024-01-15T10:47:14;10.13;;;8.93;;
19235;SDS011;9752;54.270;12.470;2024-01-15T10:52:16;11.13;;;8.60;;
19235;SDS011;9752;54.270;12.470;2024-01-15T10:57:19;10.07;;;7.90;;
19235;SDS011;9752;54.270;12.470;2024-01-15T11:02:22;8.80;;;8.00;;
19235;SDS011;9752;54.270;12.470;2024-01-15T11:07:25;8.53;;;7.83;;
19235;SDS011;9752;54.270;12.470;2024-01-15T11:12:29;9.73;;;7.70;;
19235;SDS011;9752;54.270;12.470;2024-01-15T11:23:03;9.17;;;8.10;;
19235;SDS011;9752;54.270;12.470;2024-01-15T11:28:06;8.63;;;7.80;;
19235;SDS011;9752;54.270;12.470;2024-01-15T11:33:08;9.23;;;8.23;;
19235;SDS011;9752;54.270;12.470;2024-01-15T11:38:33;9.07;;;8.20;;
19235;SDS011;9752;54.270;12.470;2024-01-15T11:43:36;9.27;;;8.20;;
19235;SDS011;9752;54.270;12.470;2024-01-15T11:48:42;10.40;;;8.60;;
19235;SDS011;9752;54.270;12.470;2024-01-15T11:53:47;10.83;;;9.10;;
19235;SDS011;9752;54.270;12.470;2024-01-15T11:58:54;8.63;;;8.00;;
19235;SDS011;9752;54.270;12.470;2024-01-15T12:03:57;8.47;;;7.60;;
19235;SDS011;9752;54.270;12.470;2024-01-15T12:09:05;10.00;;;9.20;;
19235;SDS011;9752;54.270;12.470;2024-01-15T12:14:09;9.83;;;9.43;;
19235;SDS011;9752;54.270;12.470;2024-01-15T12:19:10;11.17;;;10.03;;
19235;SDS011;9752;54.270;12.470;2024-01-15T12:24:12;9.20;;;8.70;;
19235;SDS011;9752;54.270;12.470;2024-01-15T12:29:15;9.70;;;8.90;;
19235;SDS011;9752;54.270;12.470;2024-01-15T12:34:19;10.83;;;9.87;;
19235;SDS011;9752;54.270;12.470;2024-01-15T12:39:21;9.90;;;9.33;;
19235;SDS011;9752;54.270;12.470;2024-01-15T12:44:24;10.10;;;9.20;;
19235;SDS011;9752;54.270;12.470;2024-01-15T12:49:25;10.90;;;9.87;;
19235;SDS011;9752;54.270;12.470;2024-01-15T12:54:27;10.37;;;9.63;;
19235;SDS011;9752;54.270;12.470;2024-01-15T12:59:30;10.43;;;9.80;;
19235;SDS011;9752;54.270;12.470;2024-01-15T13:04:32;10.63;;;9.80;;
19235;SDS011;9752;54.270;12.470;2024-01-15T13:09:34;11.03;;;10.23;;
19235;SDS011;9752;54.270;12.470;2024-01-15T13:14:37;10.60;;;10.00;;
19235;SDS011;9752;54.270;12.470;2024-01-15T13:19:41;11.07;;;10.37;;
19235;SDS011;9752;54.270;12.470;2024-01-15T13:24:42;12.37;;;9.93;;
19235;SDS011;9752;54.270;12.470;2024-01-15T13:29:45;9.90;;;9.17;;
19235;SDS011;9752;54.270;12.470;2024-01-15T13:34:47;9.27;;;8.70;;
19235;SDS011;9752;54.270;12.470;2024-01-15T13:39:49;9.83;;;9.30;;
19235;SDS011;9752;54.270;12.470;2024-01-15T13:44:53;9.47;;;8.80;;
19235;SDS011;9752;54.270;12.470;2024-01-15T13:49:55;9.20;;;8.40;;
19235;SDS011;9752;54.270;12.470;2024-01-15T13:54:57;9.40;;;8.80;;
19235;SDS011;9752;54.270;12.470;2024-01-15T14:00:00;9.07;;;8.47;;
19235;SDS011;9752;54.270;12.470;2024-01-15T14:05:01;9.67;;;8.80;;
19235;SDS011;9752;54.270;12.470;2024-01-15T14:10:03;10.90;;;9.10;;
19235;SDS011;9752;54.270;12.470;2024-01-15T14:15:07;9.30;;;8.80;;
19235;SDS011;9752;54.270;12.470;2024-01-15T14:20:09;9.80;;;9.00;;
19235;SDS011;9752;54.270;12.470;2024-01-15T14:25:11;9.07;;;8.67;;
19235;SDS011;9752;54.270;12.470;2024-01-15T14:30:15;9.90;;;9.50;;
19235;SDS011;9752;54.270;12.470;2024-01-15T14:35:17;10.67;;;10.10;;
19235;SDS011;9752;54.270;12.470;2024-01-15T14:40:19;9.90;;;9.00;;
19235;SDS011;9752;54.270;12.470;2024-01-15T14:45:22;9.70;;;9.20;;
19235;SDS011;9752;54.270;12.470;2024-01-15T14:50:24;9.77;;;9.10;;
19235;SDS011;9752;54.270;12.470;2024-01-15T14:55:26;12.63;;;10.10;;
19235;SDS011;9752;54.270;12.470;2024-01-15T15:00:29;10.43;;;9.60;;
19235;SDS011;9752;54.270;12.470;2024-01-15T15:05:30;9.60;;;9.20;;
19235;SDS011;9752;54.270;12.470;2024-01-15T15:10:32;9.13;;;8.73;;
19235;SDS011;9752;54.270;12.470;2024-01-15T15:15:35;10.00;;;9.50;;
19235;SDS011;9752;54.270;12.470;2024-01-15T15:20:37;9.10;;;8.40;;
19235;SDS011;9752;54.270;12.470;2024-01-15T15:25:39;10.27;;;9.40;;
19235;SDS011;9752;54.270;12.470;2024-01-15T15:30:44;9.03;;;8.20;;
19235;SDS011;9752;54.270;12.470;2024-01-15T15:35:46;9.70;;;8.13;;
19235;SDS011;9752;54.270;12.470;2024-01-15T15:40:48;8.30;;;7.70;;
19235;SDS011;9752;54.270;12.470;2024-01-15T15:45:51;8.10;;;7.63;;
19235;SDS011;9752;54.270;12.470;2024-01-15T15:50:52;8.27;;;7.77;;
19235;SDS011;9752;54.270;12.470;2024-01-15T15:55:55;8.10;;;7.70;;
19235;SDS011;9752;54.270;12.470;2024-01-15T16:00:58;8.83;;;8.33;;
19235;SDS011;9752;54.270;12.470;2024-01-15T16:06:00;9.03;;;8.53;;
19235;SDS011;9752;54.270;12.470;2024-01-15T16:11:01;10.00;;;9.20;;
19235;SDS011;9752;54.270;12.470;2024-01-15T16:16:05;10.17;;;9.20;;
19235;SDS011;9752;54.270;12.470;2024-01-15T16:21:07;9.80;;;8.70;;
19235;SDS011;9752;54.270;12.470;2024-01-15T16:26:08;8.23;;;7.83;;
19235;SDS011;9752;54.270;12.470;2024-01-15T16:31:11;8.40;;;7.83;;
19235;SDS011;9752;54.270;12.470;2024-01-15T16:36:13;8.40;;;8.10;;
19235;SDS011;9752;54.270;12.470;2024-01-15T16:41:15;8.93;;;8.43;;
19235;SDS011;9752;54.270;12.470;2024-01-15T16:46:18;9.77;;;9.10;;
19235;SDS011;9752;54.270;12.470;2024-01-15T16:51:19;9.00;;;8.50;;
19235;SDS011;9752;54.270;12.470;2024-01-15T16:56:21;9.20;;;8.60;;
19235;SDS011;9752;54.270;12.470;2024-01-15T17:01:24;9.07;;;8.47;;
19235;SDS011;9752;54.270;12.470;2024-01-15T17:06:26;7.47;;;6.93;;
19235;SDS011;9752;54.270;12.470;2024-01-15T17:11:27;8.07;;;7.50;;
19235;SDS011;9752;54.270;12.470;2024-01-15T17:16:30;8.80;;;8.40;;
19235;SDS011;9752;54.270;12.470;2024-01-15T17:21:32;8.93;;;8.07;;
19235;SDS011;9752;54.270;12.470;2024-01-15T17:26:34;8.23;;;7.83;;
19235;SDS011;9752;54.270;12.470;2024-01-15T17:31:37;9.17;;;8.67;;
19235;SDS011;9752;54.270;12.470;2024-01-15T17:36:38;9.27;;;8.50;;
19235;SDS011;9752;54.270;12.470;2024-01-15T17:41:40;9.00;;;8.50;;
19235;SDS011;9752;54.270;12.470;2024-01-15T17:46:44;8.83;;;8.40;;
19235;SDS011;9752;54.270;12.470;2024-01-15T17:51:46;9.43;;;8.67;;
19235;SDS011;9752;54.270;12.470;2024-01-15T17:56:48;11.10;;;9.03;;
19235;SDS011;9752;54.270;12.470;2024-01-15T18:01:51;9.90;;;9.20;;
19235;SDS011;9752;54.270;12.470;2024-01-15T18:06:54;10.43;;;9.93;;
19235;SDS011;9752;54.270;12.470;2024-01-15T18:11:56;10.40;;;9.80;;
19235;SDS011;9752;54.270;12.470;2024-01-15T18:17:02;10.97;;;10.20;;
19235;SDS011;9752;54.270;12.470;2024-01-15T18:22:04;10.23;;;9.63;;
19235;SDS011;9752;54.270;12.470;2024-01-15T18:27:06;9.70;;;8.90;;
19235;SDS011;9752;54.270;12.470;2024-01-15T18:32:09;8.93;;;8.53;;
19235;SDS011;9752;54.270;12.470;2024-01-15T18:37:11;10.07;;;8.67;;
19235;SDS011;9752;54.270;12.470;2024-01-15T18:42:13;32.33;;;10.07;;
19235;SDS011;9752;54.270;12.470;2024-01-15T18:47:16;9.43;;;8.60;;
19235;SDS011;9752;54.270;12.470;2024-01-15T18:52:17;9.53;;;9.17;;
19235;SDS011;9752;54.270;12.470;2024-01-15T18:57:21;11.27;;;8.83;;
19235;SDS011;9752;54.270;12.470;2024-01-15T19:02:24;9.93;;;9.33;;
19235;SDS011;9752;54.270;12.470;2024-01-15T19:07:26;9.17;;;8.60;;
19235;SDS011;9752;54.270;12.470;2024-01-15T19:12:27;9.80;;;9.20;;
19235;SDS011;9752;54.270;12.470;2024-01-15T19:17:30;10.23;;;9.63;;
19235;SDS011;9752;54.270;12.470;2024-01-15T19:22:32;9.47;;;8.77;;
19235;SDS011;9752;54.270;12.470;2024-01-15T19:27:34;10.77;;;9.70;;
19235;SDS011;9752;54.270;12.470;2024-01-15T19:32:38;9.60;;;9.10;;
19235;SDS011;9752;54.270;12.470;2024-01-15T19:37:41;10.10;;;9.70;;
19235;SDS011;9752;54.270;12.470;2024-01-15T19:42:42;10.80;;;9.70;;
19235;SDS011;9752;54.270;12.470;2024-01-15T19:47:46;10.30;;;9.80;;
19235;SDS011;9752;54.270;12.470;2024-01-15T19:52:47;9.30;;;8.90;;
19235;SDS011;9752;54.270;12.470;2024-01-15T19:57:49;10.47;;;9.67;;
19235;SDS011;9752;54.270;12.470;2024-01-15T20:02:52;9.20;;;8.60;;
19235;SDS011;9752;54.270;12.470;2024-01-15T20:07:54;10.17;;;9.37;;
19235;SDS011;9752;54.270;12.470;2024-01-15T20:12:56;10.20;;;9.53;;
19235;SDS011;9752;54.270;12.470;2024-01-15T20:17:59;11.30;;;10.20;;
19235;SDS011;9752;54.270;12.470;2024-01-15T20:23:00;9.80;;;9.30;;
19235;SDS011;9752;54.270;12.470;2024-01-15T20:28:02;9.47;;;8.90;;
19235;SDS011;9752;54.270;12.470;2024-01-15T20:33:07;10.13;;;9.30;;
19235;SDS011;9752;54.270;12.470;2024-01-15T20:38:09;9.67;;;9.17;;
19235;SDS011;9752;54.270;12.470;2024-01-15T20:43:11;9.17;;;8.60;;
19235;SDS011;9752;54.270;12.470;2024-01-15T20:48:13;9.20;;;8.60;;
19235;SDS011;9752;54.270;12.470;2024-01-15T20:53:15;9.47;;;8.70;;
19235;SDS011;9752;54.270;12.470;2024-01-15T20:58:20;9.70;;;8.97;;
19235;SDS011;9752;54.270;12.470;2024-01-15T21:03:24;9.63;;;9.10;;
19235;SDS011;9752;54.270;12.470;2024-01-15T21:08:25;9.63;;;9.03;;
19235;SDS011;9752;54.270;12.470;2024-01-15T21:13:28;10.80;;;9.40;;
19235;SDS011;9752;54.270;12.470;2024-01-15T21:18:31;9.70;;;9.10;;
19235;SDS011;9752;54.270;12.470;2024-01-15T21:23:33;9.70;;;9.13;;
19235;SDS011;9752;54.270;12.470;2024-01-15T21:28:35;9.30;;;8.83;;
19235;SDS011;9752;54.270;12.470;2024-01-15T21:33:38;9.80;;;9.20;;
19235;SDS011;9752;54.270;12.470;2024-01-15T21:38:44;8.80;;;8.30;;
19235;SDS011;9752;54.270;12.470;2024-01-15T21:43:45;9.50;;;8.90;;
19235;SDS011;9752;54.270;12.470;2024-01-15T21:48:48;9.80;;;9.10;;
19235;SDS011;9752;54.270;12.470;2024-01-15T21:53:50;10.07;;;9.40;;
19235;SDS011;9752;54.270;12.470;2024-01-15T21:58:52;9.63;;;8.97;;
19235;SDS011;9752;54.270;12.470;2024-01-15T22:03:55;9.53;;;9.03;;
19235;SDS011;9752;54.270;12.470;2024-01-15T22:08:57;9.73;;;9.13;;
19235;SDS011;9752;54.270;12.470;2024-01-15T22:13:59;9.53;;;9.00;;
19235;SDS011;9752;54.270;12.470;2024-01-15T22:19:02;10.10;;;9.43;;
19235;SDS011;9752;54.270;12.470;2024-01-15T22:24:04;10.20;;;9.50;;
19235;SDS011;9752;54.270;12.470;2024-01-15T22:29:06;10.40;;;9.40;;
19235;SDS011;9752;54.270;12.470;2024-01-15T22:34:09;10.50;;;9.60;;
19235;SDS011;9752;54.270;12.470;2024-01-15T22:39:11;10.17;;;9.67;;
19235;SDS011;9752;54.270;12.470;2024-01-15T22:44:13;10.07;;;9.67;;
19235;SDS011;9752;54.270;12.470;2024-01-15T22:49:16;9.87;;;9.37;;
19235;SDS011;9752;54.270;12.470;2024-01-15T22:54:18;10.40;;;9.90;;
19235;SDS011;9752;54.270;12.470;2024-01-15T22:59:20;12.07;;;10.83;;
19235;SDS011;9752;54.270;12.470;2024-01-15T23:04:23;10.37;;;9.77;;
19235;SDS011;9752;54.270;12.470;2024-01-15T23:09:24;9.77;;;9.27;;
19235;SDS011;9752;54.270;12.470;2024-01-15T23:14:26;9.63;;;9.23;;
19235;SDS011;9752;54.270;12.470;2024-01-15T23:19:29;10.13;;;9.67;;
19235;SDS011;9752;54.270;12.470;2024-01-15T23:24:31;10.07;;;9.67;;
19235;SDS011;9752;54.270;12.470;2024-01-15T23:29:32;11.53;;;10.83;;
19235;SDS011;9752;54.270;12.470;2024-01-15T23:34:35;10.90;;;10.30;;
19235;SDS011;9752;54.270;12.470;2024-01-15T23:39:37;11.03;;;10.40;;
19235;SDS011;9752;54.270;12.470;2024-01-15T23:44:39;11.17;;;10.63;;
19235;SDS011;9752;54.270;12.470;2024-01-15T23:49:42;10.87;;;10.27;;
19235;SDS011;9752;54.270;12.470;2024-01-15T23:54:43;10.93;;;10.33;;
19235;SDS011;9752;54.270;12.470;2024-01-15T23:59:45;10.00;;;9.50;;
